createdAt,value
2017-12-24T00:00:55.577Z,15.43
2017-12-24T00:03:22.452Z,15.10
2017-12-24T00:05:49.535Z,15.90
2017-12-24T00:08:16.382Z,13.90
2017-12-24T00:10:43.218Z,13.55
2017-12-24T00:13:10.028Z,14.18
2017-12-24T00:15:36.868Z,14.40
2017-12-24T00:18:04.042Z,13.60
2017-12-24T00:20:30.884Z,13.43
2017-12-24T00:22:57.728Z,13.73
2017-12-24T00:25:24.591Z,13.80
2017-12-24T00:27:51.398Z,14.20
2017-12-24T00:30:18.217Z,14.02
2017-12-24T00:32:45.093Z,13.80
2017-12-24T00:35:11.900Z,14.93
2017-12-24T00:37:38.714Z,14.70
2017-12-24T00:40:05.587Z,14.20
2017-12-24T00:42:32.424Z,13.90
2017-12-24T00:44:59.233Z,14.10
2017-12-24T00:47:26.102Z,14.87
2017-12-24T00:49:52.914Z,14.52
2017-12-24T00:52:19.759Z,14.45
2017-12-24T00:54:46.588Z,14.77
2017-12-24T00:57:13.443Z,15.30
2017-12-24T00:59:40.582Z,14.30
2017-12-24T01:02:07.784Z,15.07
2017-12-24T01:04:34.618Z,14.85
2017-12-24T01:07:01.454Z,14.10
2017-12-24T01:09:28.345Z,14.20
2017-12-24T01:11:55.117Z,14.02
2017-12-24T01:14:21.970Z,14.20
2017-12-24T01:16:48.842Z,13.65
2017-12-24T01:19:15.641Z,12.90
2017-12-24T01:21:42.781Z,13.60
2017-12-24T01:24:09.615Z,13.30
2017-12-24T01:26:36.766Z,12.63
2017-12-24T01:29:03.569Z,13.73
2017-12-24T01:31:30.439Z,13.70
2017-12-24T01:33:57.260Z,14.10
2017-12-24T01:36:24.103Z,14.20
2017-12-24T01:38:51.302Z,14.13
2017-12-24T01:41:18.456Z,14.80
2017-12-24T01:43:45.291Z,13.80
2017-12-24T01:46:12.166Z,14.05
2017-12-24T01:48:39.290Z,13.40
2017-12-24T01:51:06.147Z,13.35
2017-12-24T01:53:33.023Z,13.48
2017-12-24T01:55:59.830Z,13.18
2017-12-24T01:58:26.678Z,12.88
2017-12-24T02:00:53.501Z,12.90
2017-12-24T02:03:20.378Z,12.40
2017-12-24T02:05:47.226Z,11.98
2017-12-24T02:08:14.074Z,12.02
2017-12-24T02:10:40.890Z,11.93
2017-12-24T02:13:07.785Z,11.38
2017-12-24T02:15:34.646Z,11.70
2017-12-24T02:18:01.521Z,11.90
2017-12-24T02:20:28.660Z,10.90
2017-12-24T02:22:55.497Z,11.77
2017-12-24T02:25:22.310Z,11.40
2017-12-24T02:27:49.129Z,10.90
2017-12-24T02:30:16.003Z,11.38
2017-12-24T02:32:42.818Z,11.70
2017-12-24T02:35:09.659Z,12.40
2017-12-24T02:37:36.528Z,12.63
2017-12-24T02:40:03.712Z,12.98
2017-12-24T02:42:30.551Z,13.80
2017-12-24T02:44:57.389Z,14.63
2017-12-24T02:47:24.206Z,13.30
2017-12-24T02:49:51.036Z,13.62
2017-12-24T02:52:17.914Z,13.43
2017-12-24T02:54:44.776Z,13.90
2017-12-24T02:57:11.585Z,13.40
2017-12-24T02:59:38.418Z,13.52
2017-12-24T03:02:05.501Z,13.68
2017-12-24T03:04:32.346Z,13.18
2017-12-24T03:06:59.223Z,13.13
2017-12-24T03:09:26.072Z,12.90
2017-12-24T03:11:52.925Z,12.43
2017-12-24T03:14:20.024Z,11.77
2017-12-24T03:16:46.866Z,11.70
2017-12-24T03:19:13.703Z,12.10
2017-12-24T03:21:40.583Z,10.50
2017-12-24T03:24:07.618Z,10.60
2017-12-24T03:26:34.463Z,10.88
2017-12-24T03:29:01.294Z,10.90
2017-12-24T03:31:28.148Z,10.10
2017-12-24T03:33:54.983Z,9.88
2017-12-24T03:36:21.809Z,9.50
2017-12-24T03:38:48.609Z,9.13
2017-12-24T03:41:15.413Z,9.00
2017-12-24T03:43:42.262Z,9.30
2017-12-24T03:46:09.130Z,8.40
2017-12-24T03:48:35.974Z,8.60
2017-12-24T03:51:03.187Z,8.07
2017-12-24T03:53:30.051Z,8.77
2017-12-24T03:55:56.855Z,8.60
2017-12-24T03:58:24.023Z,8.40
2017-12-24T04:00:50.851Z,8.30
2017-12-24T04:03:18.019Z,7.80
2017-12-24T04:05:44.871Z,8.13
2017-12-24T04:08:11.704Z,7.62
2017-12-24T04:10:38.501Z,6.87
2017-12-24T04:13:05.366Z,7.62
2017-12-24T04:15:32.206Z,6.93
2017-12-24T04:17:59.051Z,6.85
2017-12-24T04:20:26.229Z,7.30
2017-12-24T04:22:53.038Z,7.00
2017-12-24T04:25:20.114Z,6.80
2017-12-24T04:27:46.948Z,6.55
2017-12-24T04:30:13.787Z,6.20
2017-12-24T04:32:40.589Z,7.10
2017-12-24T04:35:07.447Z,6.60
2017-12-24T04:37:34.539Z,6.50
2017-12-24T04:40:01.367Z,6.20
2017-12-24T04:42:28.223Z,5.97
2017-12-24T04:44:55.266Z,5.85
2017-12-24T04:47:22.090Z,6.00
2017-12-24T04:49:48.921Z,5.72
2017-12-24T04:52:15.730Z,5.85
2017-12-24T04:54:42.537Z,5.75
2017-12-24T04:57:09.365Z,5.55
2017-12-24T04:59:36.429Z,5.78
2017-12-24T05:02:03.233Z,5.18
2017-12-24T05:04:30.074Z,5.50
2017-12-24T05:06:56.928Z,5.18
2017-12-24T05:09:23.766Z,4.55
2017-12-24T05:11:50.635Z,5.07
2017-12-24T05:14:17.436Z,4.80
2017-12-24T05:16:44.271Z,4.90
2017-12-24T05:19:11.135Z,4.80
2017-12-24T05:21:37.942Z,4.80
2017-12-24T05:24:05.072Z,4.70
2017-12-24T05:26:31.922Z,4.82
2017-12-24T05:28:59.058Z,4.50
2017-12-24T05:31:25.907Z,5.10
2017-12-24T05:33:52.729Z,4.90
2017-12-24T05:36:19.559Z,4.80
2017-12-24T05:38:46.366Z,4.80
2017-12-24T05:41:13.478Z,5.10
2017-12-24T05:43:40.525Z,5.45
2017-12-24T05:46:07.363Z,5.07
2017-12-24T05:48:34.194Z,5.50
2017-12-24T05:51:01.018Z,4.57
2017-12-24T05:53:27.851Z,4.70
2017-12-24T05:55:54.719Z,4.30
2017-12-24T05:58:21.550Z,4.75
2017-12-24T06:00:48.409Z,4.40
2017-12-24T06:03:15.587Z,4.68
2017-12-24T06:05:42.415Z,5.00
2017-12-24T06:08:09.455Z,4.53
2017-12-24T06:10:36.517Z,4.43
2017-12-24T06:13:03.359Z,4.30
2017-12-24T06:15:30.171Z,4.95
2017-12-24T06:17:57.015Z,4.40
2017-12-24T06:20:24.114Z,4.43
2017-12-24T06:22:50.929Z,4.10
2017-12-24T06:25:18.095Z,4.25
2017-12-24T06:27:44.951Z,3.90
2017-12-24T06:30:11.787Z,4.10
2017-12-24T06:32:38.605Z,3.97
2017-12-24T06:35:05.411Z,3.90
2017-12-24T06:37:32.217Z,4.30
2017-12-24T06:39:59.046Z,4.20
2017-12-24T06:42:26.127Z,4.32
2017-12-24T06:44:53.023Z,4.10
2017-12-24T06:47:20.085Z,4.40
2017-12-24T06:49:46.902Z,4.10
2017-12-24T06:52:13.755Z,4.10
2017-12-24T06:54:40.595Z,4.10
2017-12-24T06:57:07.441Z,4.27
2017-12-24T06:59:34.238Z,4.00
2017-12-24T07:02:01.065Z,4.15
2017-12-24T07:04:27.923Z,4.30
2017-12-24T07:06:54.728Z,4.00
2017-12-24T07:09:21.552Z,4.25
2017-12-24T07:11:48.353Z,4.20
2017-12-24T07:14:15.165Z,4.12
2017-12-24T07:16:42.314Z,4.05
2017-12-24T07:19:09.147Z,3.60
2017-12-24T07:21:35.980Z,3.80
2017-12-24T07:24:02.784Z,3.78
2017-12-24T07:26:29.675Z,3.70
2017-12-24T07:28:56.489Z,3.73
2017-12-24T07:31:23.341Z,3.75
2017-12-24T07:33:50.173Z,4.18
2017-12-24T07:36:17.015Z,3.42
2017-12-24T07:38:43.839Z,3.30
2017-12-24T07:41:10.680Z,3.60
2017-12-24T07:43:37.866Z,3.60
2017-12-24T07:46:04.692Z,3.85
2017-12-24T07:48:31.787Z,3.40
2017-12-24T07:50:58.612Z,4.20
2017-12-24T07:53:25.477Z,3.70
2017-12-24T07:55:52.375Z,3.83
2017-12-24T07:58:19.201Z,3.90
2017-12-24T08:00:46.013Z,3.60
2017-12-24T08:03:12.863Z,4.10
2017-12-24T08:05:39.708Z,3.85
2017-12-24T08:08:06.558Z,3.93
2017-12-24T08:10:33.684Z,5.20
2017-12-24T08:13:00.485Z,4.93
2017-12-24T08:15:27.298Z,4.20
2017-12-24T08:17:54.126Z,3.92
2017-12-24T08:20:20.929Z,3.87
2017-12-24T08:22:47.806Z,3.70
2017-12-24T08:25:14.610Z,4.50
2017-12-24T08:27:41.414Z,4.10
2017-12-24T08:30:08.275Z,4.20
2017-12-24T08:32:35.085Z,3.60
2017-12-24T08:35:01.901Z,4.07
2017-12-24T08:37:28.726Z,5.70
2017-12-24T08:39:56.276Z,4.55
2017-12-24T08:42:23.093Z,4.50
2017-12-24T08:44:49.975Z,3.90
2017-12-24T08:47:16.796Z,3.70
2017-12-24T08:49:43.684Z,4.20
2017-12-24T08:52:10.481Z,3.90
2017-12-24T08:54:37.735Z,4.68
2017-12-24T08:57:04.567Z,5.00
2017-12-24T08:59:31.668Z,5.00
2017-12-24T09:01:58.507Z,5.50
2017-12-24T09:04:25.347Z,5.40
2017-12-24T09:06:52.509Z,5.75
2017-12-24T09:09:19.327Z,6.60
2017-12-24T09:11:46.171Z,5.22
2017-12-24T09:14:12.998Z,5.10
2017-12-24T09:16:39.839Z,5.10
2017-12-24T09:19:06.633Z,5.45
2017-12-24T09:21:33.450Z,6.00
2017-12-24T09:24:00.270Z,6.00
2017-12-24T09:26:27.121Z,5.30
2017-12-24T09:28:53.942Z,5.45
2017-12-24T09:31:20.746Z,6.10
2017-12-24T09:33:47.578Z,5.70
2017-12-24T09:36:14.429Z,8.48
2017-12-24T09:38:41.261Z,7.60
2017-12-24T09:41:08.115Z,6.62
2017-12-24T09:43:35.254Z,5.70
2017-12-24T09:46:02.090Z,7.22
2017-12-24T09:48:28.903Z,7.30
2017-12-24T09:50:55.961Z,6.37
2017-12-24T09:53:27.263Z,6.62
2017-12-24T09:55:57.472Z,6.93
2017-12-24T09:58:24.822Z,6.70
2017-12-24T10:00:54.843Z,6.40
2017-12-24T10:03:24.616Z,6.28
2017-12-24T10:05:51.421Z,6.40
2017-12-24T10:08:18.295Z,6.90
2017-12-24T10:10:45.139Z,6.22
2017-12-24T10:13:12.015Z,6.72
2017-12-24T10:15:38.853Z,6.70
2017-12-24T10:18:05.694Z,6.40
2017-12-24T10:20:32.580Z,6.15
2017-12-24T10:22:59.382Z,5.50
2017-12-24T10:25:26.234Z,5.93
2017-12-24T10:27:53.042Z,5.90
2017-12-24T10:30:19.909Z,6.30
2017-12-24T10:32:46.725Z,5.90
2017-12-24T10:35:13.584Z,5.85
2017-12-24T10:37:40.406Z,5.90
2017-12-24T10:40:07.229Z,6.10
2017-12-24T10:42:34.057Z,6.03
2017-12-24T10:45:00.874Z,6.00
2017-12-24T10:47:27.677Z,6.13
2017-12-24T10:49:54.498Z,6.43
2017-12-24T10:52:21.334Z,7.80
2017-12-24T10:54:48.169Z,6.80
2017-12-24T10:57:15.032Z,6.57
2017-12-24T10:59:42.420Z,6.90
2017-12-24T11:02:09.639Z,7.43
2017-12-24T11:04:36.483Z,9.55
2017-12-24T11:07:03.293Z,7.35
2017-12-24T11:09:30.110Z,7.50
2017-12-24T11:11:56.922Z,7.50
2017-12-24T11:14:24.014Z,8.17
2017-12-24T11:16:50.822Z,7.50
2017-12-24T11:19:17.692Z,7.28
2017-12-24T11:21:44.547Z,7.93
2017-12-24T11:24:11.387Z,9.43
2017-12-24T11:26:38.247Z,8.00
2017-12-24T11:29:05.099Z,7.28
2017-12-24T11:31:31.934Z,8.50
2017-12-24T11:33:58.779Z,9.30
2017-12-24T11:36:25.586Z,7.75
2017-12-24T11:38:52.446Z,11.12
2017-12-24T11:41:19.258Z,9.45
2017-12-24T11:43:46.111Z,8.93
2017-12-24T11:46:12.922Z,9.95
2017-12-24T11:48:39.835Z,10.10
2017-12-24T11:51:06.670Z,10.53
2017-12-24T11:53:33.554Z,10.15
2017-12-24T11:56:00.442Z,11.50
2017-12-24T11:58:27.292Z,11.65
2017-12-24T12:00:54.147Z,12.60
2017-12-24T12:03:20.978Z,12.25
2017-12-24T12:05:47.815Z,11.95
2017-12-24T12:08:14.652Z,12.63
2017-12-24T12:10:41.489Z,14.10
2017-12-24T12:13:08.302Z,14.85
2017-12-24T12:15:35.180Z,15.10
2017-12-24T12:18:01.989Z,15.50
2017-12-24T12:20:28.818Z,15.80
2017-12-24T12:22:55.679Z,17.48
2017-12-24T12:25:22.492Z,18.77
2017-12-24T12:27:49.384Z,18.83
2017-12-24T12:30:16.463Z,18.40
2017-12-24T12:32:43.288Z,18.92
2017-12-24T12:35:10.127Z,17.55
2017-12-24T12:37:36.946Z,17.83
2017-12-24T12:40:03.823Z,18.27
2017-12-24T12:42:30.687Z,17.50
2017-12-24T12:44:57.503Z,17.27
2017-12-24T12:47:24.385Z,17.77
2017-12-24T12:49:51.195Z,18.45
2017-12-24T12:52:18.058Z,19.90
2017-12-24T12:54:44.886Z,17.00
2017-12-24T12:57:11.939Z,16.67
2017-12-24T12:59:38.813Z,17.05
2017-12-24T13:02:05.641Z,17.12
2017-12-24T13:04:32.463Z,16.90
2017-12-24T13:06:59.275Z,16.80
2017-12-24T13:09:26.358Z,17.52
2017-12-24T13:11:53.202Z,17.50
2017-12-24T13:14:20.051Z,18.60
2017-12-24T13:16:46.923Z,17.62
2017-12-24T13:19:13.755Z,18.40
2017-12-24T13:21:40.652Z,19.17
2017-12-24T13:24:07.473Z,17.67
2017-12-24T13:26:34.282Z,17.30
2017-12-24T13:29:01.223Z,18.73
2017-12-24T13:31:28.059Z,17.30
2017-12-24T13:33:54.870Z,19.15
2017-12-24T13:36:22.042Z,18.15
2017-12-24T13:38:48.900Z,18.85
2017-12-24T13:41:16.043Z,17.35
2017-12-24T13:43:42.938Z,18.40
2017-12-24T13:46:09.787Z,18.75
2017-12-24T13:48:36.621Z,16.17
2017-12-24T13:51:03.485Z,15.05
2017-12-24T13:53:30.348Z,15.45
2017-12-24T13:55:57.540Z,16.25
2017-12-24T13:58:24.350Z,15.70
2017-12-24T14:00:51.218Z,16.45
2017-12-24T14:03:18.067Z,14.87
2017-12-24T14:05:44.947Z,15.55
2017-12-24T14:08:11.755Z,15.52
2017-12-24T14:10:38.622Z,15.20
2017-12-24T14:13:05.491Z,14.23
2017-12-24T14:15:32.331Z,14.00
2017-12-24T14:17:59.239Z,13.10
2017-12-24T14:20:26.050Z,13.15
2017-12-24T14:22:52.900Z,13.18
2017-12-24T14:25:19.734Z,12.70
2017-12-24T14:27:46.546Z,12.98
2017-12-24T14:30:13.401Z,12.48
2017-12-24T14:32:40.285Z,13.07
2017-12-24T14:35:07.140Z,13.98
2017-12-24T14:37:33.977Z,12.88
2017-12-24T14:40:00.821Z,16.97
2017-12-24T14:42:27.683Z,12.20
2017-12-24T14:44:54.519Z,11.70
2017-12-24T14:47:21.378Z,11.70
2017-12-24T14:49:48.244Z,11.18
2017-12-24T14:52:15.082Z,11.40
2017-12-24T14:54:41.986Z,11.85
2017-12-24T14:57:08.832Z,11.20
2017-12-24T14:59:35.637Z,11.43
2017-12-24T15:02:02.495Z,11.18
2017-12-24T15:04:29.315Z,11.00
2017-12-24T15:06:56.196Z,11.20
2017-12-24T15:09:23.015Z,10.23
2017-12-24T15:11:49.856Z,10.65
2017-12-24T15:14:16.743Z,11.63
2017-12-24T15:16:43.608Z,9.50
2017-12-24T15:19:10.517Z,10.85
2017-12-24T15:21:37.421Z,11.05
2017-12-24T15:24:04.338Z,11.70
2017-12-24T15:26:31.232Z,10.95
2017-12-24T15:28:58.118Z,10.90
2017-12-24T15:31:25.224Z,10.82
2017-12-24T15:33:52.141Z,11.40
2017-12-24T15:36:19.033Z,11.20
2017-12-24T15:38:46.141Z,10.70
2017-12-24T15:41:13.020Z,11.00
2017-12-24T15:43:39.902Z,11.07
2017-12-24T15:46:06.796Z,11.30
2017-12-24T15:48:33.831Z,11.80
2017-12-24T15:51:00.998Z,11.73
2017-12-24T15:53:27.857Z,11.80
2017-12-24T15:55:54.989Z,11.50
2017-12-24T15:58:21.886Z,11.27
2017-12-24T16:00:49.086Z,11.50
2017-12-24T16:03:16.161Z,11.98
2017-12-24T16:05:43.109Z,11.73
2017-12-24T16:08:09.958Z,11.82
2017-12-24T16:10:37.373Z,12.10
2017-12-24T16:13:04.255Z,12.07
2017-12-24T16:15:31.362Z,11.75
2017-12-24T16:17:58.521Z,11.88
2017-12-24T16:20:25.406Z,11.43
2017-12-24T16:22:52.306Z,11.40
2017-12-24T16:25:19.417Z,11.30
2017-12-24T16:27:46.618Z,12.30
2017-12-24T16:30:13.472Z,10.90
2017-12-24T16:32:40.398Z,11.75
2017-12-24T16:35:07.269Z,10.60
2017-12-24T16:37:34.149Z,10.60
2017-12-24T16:40:01.081Z,11.70
2017-12-24T16:42:27.948Z,11.25
2017-12-24T16:44:54.830Z,11.37
2017-12-24T16:47:21.742Z,11.55
2017-12-24T16:49:48.626Z,10.50
2017-12-24T16:52:15.526Z,10.90
2017-12-24T16:54:42.704Z,11.32
2017-12-24T16:57:09.590Z,10.90
2017-12-24T16:59:36.473Z,11.70
2017-12-24T17:02:03.386Z,11.55
2017-12-24T17:04:30.286Z,11.12
2017-12-24T17:06:57.428Z,10.73
2017-12-24T17:09:24.580Z,11.60
2017-12-24T17:11:51.485Z,11.15
2017-12-24T17:14:18.677Z,11.75
2017-12-24T17:16:45.552Z,11.05
2017-12-24T17:19:12.413Z,11.85
2017-12-24T17:21:39.310Z,11.35
2017-12-24T17:24:06.230Z,11.57
2017-12-24T17:26:33.133Z,12.00
2017-12-24T17:29:00.038Z,11.75
2017-12-24T17:31:26.917Z,11.10
2017-12-24T17:33:53.781Z,11.70
2017-12-24T17:36:20.984Z,11.23
2017-12-24T17:38:47.887Z,12.15
2017-12-24T17:41:14.756Z,11.40
2017-12-24T17:43:41.646Z,12.80
2017-12-24T17:46:08.550Z,12.10
2017-12-24T17:48:35.433Z,12.50
2017-12-24T17:51:02.313Z,12.48
2017-12-24T17:53:29.240Z,12.50
2017-12-24T17:55:56.878Z,12.50
2017-12-24T17:58:23.766Z,12.82
2017-12-24T18:00:50.949Z,13.20
2017-12-24T18:03:17.837Z,12.77
2017-12-24T18:05:45.730Z,12.18
2017-12-24T18:08:12.635Z,13.70
2017-12-24T18:10:39.489Z,14.53
2017-12-24T18:13:06.344Z,13.10
2017-12-24T18:15:33.256Z,13.30
2017-12-24T18:18:00.156Z,13.30
2017-12-24T18:20:27.339Z,14.25
2017-12-24T18:22:54.258Z,13.40
2017-12-24T18:25:21.124Z,13.82
2017-12-24T18:27:47.997Z,13.85
2017-12-24T18:30:14.938Z,13.57
2017-12-24T18:32:41.834Z,13.75
2017-12-24T18:35:09.008Z,13.70
2017-12-24T18:37:35.889Z,14.30
2017-12-24T18:40:03.009Z,13.82
2017-12-24T18:42:30.154Z,14.00
2017-12-24T18:44:57.090Z,13.43
2017-12-24T18:47:24.253Z,14.73
2017-12-24T18:49:51.148Z,15.25
2017-12-24T18:52:18.430Z,15.70
2017-12-24T18:54:45.301Z,17.00
2017-12-24T18:57:12.190Z,16.30
2017-12-24T18:59:39.106Z,16.58
2017-12-24T19:02:05.994Z,17.85
2017-12-24T19:04:32.889Z,17.67
2017-12-24T19:07:00.122Z,18.33
2017-12-24T19:09:27.269Z,18.42
2017-12-24T19:11:54.151Z,18.60
2017-12-24T19:14:21.071Z,19.35
2017-12-24T19:16:47.962Z,17.85
2017-12-24T19:19:15.708Z,17.00
2017-12-24T19:21:43.226Z,17.20
2017-12-24T19:24:10.383Z,17.00
2017-12-24T19:26:37.277Z,16.10
2017-12-24T19:29:04.582Z,16.67
2017-12-24T19:31:31.724Z,16.98
2017-12-24T19:33:58.884Z,17.17
2017-12-24T19:36:25.797Z,16.92
2017-12-24T19:38:52.695Z,17.40
2017-12-24T19:41:19.598Z,19.58
2017-12-24T19:43:46.538Z,18.60
2017-12-24T19:46:13.431Z,18.65
2017-12-24T19:51:25.038Z,19.17
2017-12-24T19:53:51.846Z,18.80
2017-12-24T19:56:18.666Z,19.27
2017-12-24T19:58:45.513Z,19.35
2017-12-24T20:01:12.593Z,20.25
2017-12-24T20:03:39.723Z,19.92
2017-12-24T20:06:06.870Z,20.67
2017-12-24T20:08:33.727Z,21.30
2017-12-24T20:11:00.577Z,21.12
2017-12-24T20:13:27.706Z,21.23
2017-12-24T20:15:54.529Z,22.17
2017-12-24T20:18:21.372Z,22.83
2017-12-24T20:20:48.547Z,21.55
2017-12-24T20:23:15.590Z,21.50
2017-12-24T20:25:42.486Z,21.65
2017-12-24T20:28:09.354Z,21.27
2017-12-24T20:30:36.187Z,21.73
2017-12-24T20:33:02.993Z,20.70
2017-12-24T20:35:29.846Z,21.50
2017-12-24T20:37:56.705Z,22.17
2017-12-24T20:40:23.803Z,22.50
2017-12-24T20:42:50.915Z,23.95
2017-12-24T20:45:17.755Z,23.55
2017-12-24T20:47:44.775Z,23.10
2017-12-24T20:50:11.890Z,23.00
2017-12-24T20:52:38.698Z,24.35
2017-12-24T20:55:05.551Z,22.73
2017-12-24T20:57:32.415Z,22.98
2017-12-24T20:59:59.220Z,21.17
2017-12-24T21:02:26.310Z,20.80
2017-12-24T21:04:53.145Z,21.37
2017-12-24T21:07:19.987Z,22.30
2017-12-24T21:09:47.155Z,21.50
2017-12-24T21:12:13.998Z,23.73
2017-12-24T21:14:40.874Z,22.00
2017-12-24T21:17:07.724Z,22.35
2017-12-24T21:19:34.598Z,22.15
2017-12-24T21:22:01.529Z,21.08
2017-12-24T21:24:28.361Z,21.98
2017-12-24T21:26:55.227Z,21.27
2017-12-24T21:29:22.193Z,21.90
2017-12-24T21:31:49.039Z,21.80
2017-12-24T21:34:15.903Z,21.30
2017-12-24T21:36:42.747Z,21.85
2017-12-24T21:39:09.570Z,19.40
2017-12-24T21:41:36.407Z,20.08
2017-12-24T21:44:03.586Z,19.90
2017-12-24T21:46:30.734Z,20.67
2017-12-24T21:48:58.502Z,20.67
2017-12-24T21:51:25.644Z,18.25
2017-12-24T21:53:52.509Z,19.17
2017-12-24T21:56:19.388Z,17.73
2017-12-24T21:58:46.510Z,17.03
2017-12-24T22:01:13.545Z,16.00
2017-12-24T22:03:40.574Z,16.25
2017-12-24T22:06:07.665Z,18.20
2017-12-24T22:08:34.886Z,17.30
2017-12-24T22:11:01.804Z,17.70
2017-12-24T22:13:28.698Z,16.25
2017-12-24T22:15:55.588Z,17.30
2017-12-24T22:18:22.478Z,16.42
2017-12-24T22:20:49.348Z,17.00
2017-12-24T22:23:16.212Z,16.20
2017-12-24T22:25:43.080Z,16.00
2017-12-24T22:28:10.242Z,16.30
2017-12-24T22:30:37.154Z,15.38
2017-12-24T22:33:04.062Z,15.15
2017-12-24T22:35:31.181Z,15.00
2017-12-24T22:37:58.342Z,15.50
2017-12-24T22:40:25.251Z,15.30
2017-12-24T22:42:52.288Z,15.57
2017-12-24T22:45:19.144Z,15.10
2017-12-24T22:47:46.030Z,14.85
2017-12-24T22:50:12.934Z,14.60
2017-12-24T22:52:39.785Z,15.00
2017-12-24T22:55:06.660Z,13.68
2017-12-24T22:57:33.550Z,14.35
2017-12-24T23:00:00.460Z,14.33
2017-12-24T23:02:27.340Z,14.20
2017-12-24T23:04:54.199Z,14.00
2017-12-24T23:07:21.059Z,15.38
2017-12-24T23:09:47.931Z,15.50
2017-12-24T23:12:14.803Z,15.50
2017-12-24T23:14:41.991Z,15.75
2017-12-24T23:17:09.134Z,16.60
2017-12-24T23:19:36.593Z,16.75
2017-12-24T23:22:03.439Z,16.03
2017-12-24T23:24:30.282Z,16.73
2017-12-24T23:26:57.131Z,17.70
2017-12-24T23:29:23.978Z,17.98
2017-12-24T23:31:50.847Z,19.00
2017-12-24T23:34:17.686Z,19.02
2017-12-24T23:36:45.090Z,20.40
2017-12-24T23:39:12.266Z,18.58
2017-12-24T23:41:39.414Z,20.58
2017-12-24T23:44:06.271Z,19.75
2017-12-24T23:46:33.131Z,19.98
2017-12-24T23:49:00.002Z,19.05
2017-12-24T23:51:27.089Z,18.83
2017-12-24T23:53:53.956Z,19.35
2017-12-24T23:56:20.790Z,19.25
2017-12-24T23:58:47.643Z,18.90
